Time;durP1;ratioP1;P1;durP2;ratioP2;P2;SDS_P1;SDS_P2;PMS_P1;PMS_P2;Temp;Humidity;BMP_temperature;BMP_pressure;BME280_temperature;BME280_humidity;BME280_pressure;Samples;Min_cycle;Max_cycle;Signal;HPM_P1;HPM_P2
2022/09/28 00:02:04;;;;;;;;;3.00;3.00;;;;;;;;4985807;28;9386;-89
2022/09/28 00:04:33;;;;;;;;;4.00;4.00;;;;;;;;4983592;28;9330;-87
2022/09/28 00:07:00;;;;;;;;;3.00;1.33;;;;;;;;4974262;28;9446;-88
2022/09/28 00:09:27;;;;;;;;;4.67;3.33;;;;;;;;4969397;28;9356;-86
2022/09/28 00:11:56;;;;;;;;;4.00;2.00;;;;;;;;4992164;28;9458;-86
2022/09/28 00:14:25;;;;;;;;;4.00;3.00;;;;;;;;4987503;28;9418;-85
2022/09/28 00:16:52;;;;;;;;;3.00;3.00;;;;;;;;4987727;28;9414;-84
2022/09/28 00:19:19;;;;;;;;;3.67;2.00;;;;;;;;4987186;28;9325;-89
2022/09/28 00:21:47;;;;;;;;;2.67;2.67;;;;;;;;4987654;28;9558;-84
2022/09/28 00:24:16;;;;;;;;;2.67;1.67;;;;;;;;4984995;28;9279;-89
2022/09/28 00:26:46;;;;;;;;;2.67;2.67;;;;;;;;4988326;28;10126;-86
2022/09/28 00:29:17;;;;;;;;;5.00;3.00;;;;;;;;4987378;28;9206;-86
2022/09/28 00:31:47;;;;;;;;;3.33;2.00;;;;;;;;4986143;28;9130;-87
2022/09/28 00:34:15;;;;;;;;;1.00;1.00;;;;;;;;4985204;28;9298;-88
2022/09/28 00:36:45;;;;;;;;;2.00;2.00;;;;;;;;4986835;28;10092;-87
2022/09/28 00:39:14;;;;;;;;;5.00;4.33;;;;;;;;4988350;28;9200;-87
2022/09/28 00:41:42;;;;;;;;;3.00;2.75;;;;;;;;4986499;28;9315;-87
2022/09/28 00:44:38;;;;;;;;;3.33;2.00;;;;;;;;4986880;28;9489;-84
2022/09/28 00:47:48;;;;;;;;;2.00;2.00;;;;;;;;4989362;28;9270;-89
2022/09/28 00:50:23;;;;;;;;;2.00;2.00;;;;;;;;4984870;28;10113;-83
2022/09/28 00:52:53;;;;;;;;;2.00;2.00;;;;;;;;4987144;28;9488;-86
2022/09/28 00:55:25;;;;;;;;;4.75;3.25;;;;;;;;4988154;28;9364;-86
2022/09/28 00:57:56;;;;;;;;;3.00;3.00;;;;;;;;4987098;28;9516;-89
2022/09/28 01:00:23;;;;;;;;;3.75;3.00;;;;;;;;4987613;28;9514;-85
2022/09/28 01:02:52;;;;;;;;;3.00;3.00;;;;;;;;4985744;28;9424;-88
2022/09/28 01:05:21;;;;;;;;;3.33;3.33;;;;;;;;4970294;28;9517;-85
2022/09/28 01:07:49;;;;;;;;;5.00;4.00;;;;;;;;4987026;28;9442;-85
2022/09/28 01:10:17;;;;;;;;;5.00;3.50;;;;;;;;4985627;28;9361;-87
2022/09/28 01:12:44;;;;;;;;;4.00;4.00;;;;;;;;4984536;28;9564;-83
2022/09/28 01:15:12;;;;;;;;;5.00;3.00;;;;;;;;4986106;28;9566;-88
2022/09/28 01:17:50;;;;;;;;;4.00;4.00;;;;;;;;4986999;28;9504;-85
2022/09/28 01:20:50;;;;;;;;;3.00;3.00;;;;;;;;4985498;28;9486;-86
2022/09/28 01:23:55;;;;;;;;;4.75;4.25;;;;;;;;4976696;28;9454;-88
2022/09/28 01:26:38;;;;;;;;;5.00;5.00;;;;;;;;4986700;28;9571;-88
2022/09/28 01:29:15;;;;;;;;;8.00;5.00;;;;;;;;4985475;28;9609;-88
2022/09/28 01:31:45;;;;;;;;;6.50;5.00;;;;;;;;4986420;28;9545;-91
2022/09/28 01:34:17;;;;;;;;;5.00;3.25;;;;;;;;4965728;28;9489;-86
2022/09/28 01:36:49;;;;;;;;;5.50;5.00;;;;;;;;4981137;28;9584;-86
2022/09/28 01:39:37;;;;;;;;;5.25;5.25;;;;;;;;4985561;28;9635;-86
2022/09/28 01:42:12;;;;;;;;;5.00;5.00;;;;;;;;4969655;28;9647;-85
2022/09/28 01:44:44;;;;;;;;;4.25;4.00;;;;;;;;4986126;28;9678;-91
2022/09/28 01:47:13;;;;;;;;;3.50;3.50;;;;;;;;4988629;28;9418;-85
2022/09/28 01:49:43;;;;;;;;;8.75;5.00;;;;;;;;4988895;28;9446;-83
2022/09/28 01:52:15;;;;;;;;;4.00;4.00;;;;;;;;4988919;28;10292;-86
2022/09/28 01:54:47;;;;;;;;;4.75;4.75;;;;;;;;4982328;28;9524;-85
2022/09/28 01:57:21;;;;;;;;;5.00;4.00;;;;;;;;4987668;28;9436;-84
2022/09/28 01:59:54;;;;;;;;;3.33;2.00;;;;;;;;4986042;28;9596;-84
2022/09/28 02:02:25;;;;;;;;;3.00;2.00;;;;;;;;4985812;28;9223;-85
2022/09/28 02:04:57;;;;;;;;;4.00;4.00;;;;;;;;4985716;28;9373;-88
2022/09/28 02:07:27;;;;;;;;;3.33;3.33;;;;;;;;4985312;28;9422;-88
2022/09/28 02:09:58;;;;;;;;;4.75;4.75;;;;;;;;4984026;28;9536;-87
2022/09/28 02:12:33;;;;;;;;;5.00;3.25;;;;;;;;4984202;28;9604;-89
2022/09/28 02:15:09;;;;;;;;;2.00;2.00;;;;;;;;4984732;28;9560;-89
2022/09/28 02:17:37;;;;;;;;;3.33;3.00;;;;;;;;4984270;28;9464;-85
2022/09/28 02:20:06;;;;;;;;;2.75;2.75;;;;;;;;4985469;28;9541;-89
2022/09/28 02:22:36;;;;;;;;;4.50;3.75;;;;;;;;4985819;28;9501;-84
2022/09/28 02:25:11;;;;;;;;;3.75;3.75;;;;;;;;4983270;28;10928;-89
2022/09/28 02:27:43;;;;;;;;;4.25;4.25;;;;;;;;4981847;28;9589;-84
2022/09/28 02:30:11;;;;;;;;;2.00;2.00;;;;;;;;4983279;28;9744;-84
2022/09/28 02:32:42;;;;;;;;;5.00;3.50;;;;;;;;4983938;28;9604;-88
2022/09/28 02:35:12;;;;;;;;;3.50;3.50;;;;;;;;4984271;28;9713;-86
2022/09/28 02:37:40;;;;;;;;;4.25;3.00;;;;;;;;4985059;28;9652;-86
2022/09/28 02:40:14;;;;;;;;;4.25;3.00;;;;;;;;4984896;28;10384;-89
2022/09/28 02:42:51;;;;;;;;;2.25;2.25;;;;;;;;4986019;28;9820;-83
2022/09/28 02:45:33;;;;;;;;;2.75;2.75;;;;;;;;4984170;28;9736;-85
2022/09/28 02:48:08;;;;;;;;;6.00;4.00;;;;;;;;4990923;28;9721;-87
2022/09/28 02:50:43;;;;;;;;;5.00;3.50;;;;;;;;4990203;28;9799;-87
2022/09/28 02:53:36;;;;;;;;;3.25;2.75;;;;;;;;4990331;28;9940;-89
2022/09/28 02:56:32;;;;;;;;;5.00;5.00;;;;;;;;4983223;28;9730;-89
2022/09/28 02:59:10;;;;;;;;;5.00;3.00;;;;;;;;4976655;28;9908;-85
2022/09/28 03:01:43;;;;;;;;;3.50;3.25;;;;;;;;4985676;28;9850;-85
2022/09/28 03:04:19;;;;;;;;;5.75;3.00;;;;;;;;4983220;28;9802;-87
2022/09/28 03:06:48;;;;;;;;;5.00;4.00;;;;;;;;4986031;28;9750;-88
2022/09/28 03:09:19;;;;;;;;;3.75;3.00;;;;;;;;4985234;28;9913;-89
2022/09/28 03:11:49;;;;;;;;;3.25;3.25;;;;;;;;4979227;28;9982;-86
2022/09/28 03:14:19;;;;;;;;;2.50;2.00;;;;;;;;4985075;28;9882;-88
2022/09/28 03:16:46;;;;;;;;;3.00;3.00;;;;;;;;4984494;28;9741;-86
2022/09/28 03:19:14;;;;;;;;;3.25;3.25;;;;;;;;4985663;28;9651;-86
2022/09/28 03:21:41;;;;;;;;;2.50;2.50;;;;;;;;4984051;28;9854;-88
2022/09/28 03:24:11;;;;;;;;;3.00;3.00;;;;;;;;4984410;28;10617;-84
2022/09/28 03:26:38;;;;;;;;;4.00;3.00;;;;;;;;4983902;28;9938;-88
2022/09/28 03:29:06;;;;;;;;;4.25;3.50;;;;;;;;4985361;28;9735;-85
2022/09/28 03:31:35;;;;;;;;;2.50;2.50;;;;;;;;4983454;28;9825;-87
2022/09/28 03:34:02;;;;;;;;;2.00;2.00;;;;;;;;4984193;28;9805;-83
2022/09/28 03:36:32;;;;;;;;;4.50;3.00;;;;;;;;4983722;28;9790;-89
2022/09/28 03:39:00;;;;;;;;;2.00;2.00;;;;;;;;4983208;28;9883;-85
2022/09/28 03:41:27;;;;;;;;;2.75;2.75;;;;;;;;4982533;28;9952;-83
2022/09/28 03:43:55;;;;;;;;;2.50;2.25;;;;;;;;4984058;28;10019;-83
2022/09/28 03:46:22;;;;;;;;;2.00;2.00;;;;;;;;4987341;28;9968;-83
2022/09/28 03:48:51;;;;;;;;;3.00;1.50;;;;;;;;4992503;28;10055;-88
2022/09/28 03:51:20;;;;;;;;;2.50;2.50;;;;;;;;4993484;28;10093;-84
2022/09/28 03:53:48;;;;;;;;;3.00;3.00;;;;;;;;4992584;28;10250;-92
2022/09/28 03:56:16;;;;;;;;;3.50;1.25;;;;;;;;4991905;28;10144;-86
2022/09/28 03:58:43;;;;;;;;;2.00;2.00;;;;;;;;4993227;28;10053;-91
2022/09/28 04:01:14;;;;;;;;;1.00;1.00;;;;;;;;4987325;28;10142;-85
2022/09/28 04:03:42;;;;;;;;;2.75;2.00;;;;;;;;4985858;28;10111;-91
2022/09/28 04:06:11;;;;;;;;;2.00;2.00;;;;;;;;4987423;28;10134;-89
2022/09/28 04:08:38;;;;;;;;;0.75;0.75;;;;;;;;4987254;28;10128;-91
2022/09/28 04:11:06;;;;;;;;;2.25;2.25;;;;;;;;4987239;28;10050;-92
2022/09/28 04:13:33;;;;;;;;;5.00;3.00;;;;;;;;4987476;28;10222;-90
2022/09/28 04:16:02;;;;;;;;;2.00;2.00;;;;;;;;4986873;28;10116;-86
2022/09/28 04:18:30;;;;;;;;;2.75;2.75;;;;;;;;4985691;28;10160;-90
2022/09/28 04:21:05;;;;;;;;;2.00;2.00;;;;;;;;4988108;28;10311;-86
2022/09/28 04:23:34;;;;;;;;;2.00;2.00;;;;;;;;4985881;28;10163;-88
2022/09/28 04:26:02;;;;;;;;;3.00;3.00;;;;;;;;4987102;28;10275;-84
2022/09/28 04:31:17;;;;;;;;;2.25;2.25;;;;;;;;4986121;28;10290;-85
2022/09/28 04:33:45;;;;;;;;;1.50;1.50;;;;;;;;4985871;28;10466;-84
2022/09/28 04:36:12;;;;;;;;;1.50;1.50;;;;;;;;4985829;28;10331;-83
2022/09/28 04:38:41;;;;;;;;;4.75;3.75;;;;;;;;4987291;28;10208;-86
2022/09/28 04:41:08;;;;;;;;;2.00;2.00;;;;;;;;4986634;28;10351;-85
2022/09/28 04:43:35;;;;;;;;;1.75;1.75;;;;;;;;4986624;28;10277;-86
2022/09/28 04:46:04;;;;;;;;;1.25;1.25;;;;;;;;4987965;28;11004;-85
2022/09/28 04:48:31;;;;;;;;;2.00;2.00;;;;;;;;4990163;28;10341;-85
2022/09/28 04:51:00;;;;;;;;;3.25;1.00;;;;;;;;4991660;28;10218;-86
2022/09/28 04:53:28;;;;;;;;;1.00;1.00;;;;;;;;4987881;28;10980;-86
2022/09/28 04:55:58;;;;;;;;;3.25;3.00;;;;;;;;4986387;28;10890;-86
2022/09/28 04:58:26;;;;;;;;;1.50;1.50;;;;;;;;4987691;28;10389;-83
2022/09/28 05:00:54;;;;;;;;;2.75;1.00;;;;;;;;4985001;28;10215;-83
2022/09/28 05:03:21;;;;;;;;;3.50;1.25;;;;;;;;4986248;28;10981;-87
2022/09/28 05:05:49;;;;;;;;;2.75;2.75;;;;;;;;4985287;28;10207;-85
2022/09/28 05:08:17;;;;;;;;;2.75;2.00;;;;;;;;4987363;28;10082;-84
2022/09/28 05:10:45;;;;;;;;;3.00;3.00;;;;;;;;4985785;28;10187;-88
2022/09/28 05:13:17;;;;;;;;;1.75;1.75;;;;;;;;4984118;28;10990;-86
2022/09/28 05:15:45;;;;;;;;;3.00;3.00;;;;;;;;4986217;28;10068;-85
2022/09/28 05:18:13;;;;;;;;;3.00;3.00;;;;;;;;4986017;28;10257;-83
2022/09/28 05:20:43;;;;;;;;;2.00;2.00;;;;;;;;4985632;28;10158;-82
2022/09/28 05:23:11;;;;;;;;;2.75;2.75;;;;;;;;4985063;28;10173;-85
2022/09/28 05:25:39;;;;;;;;;2.25;2.25;;;;;;;;4986319;28;10063;-87
2022/09/28 05:28:06;;;;;;;;;4.50;3.00;;;;;;;;4985758;28;10119;-84
2022/09/28 05:30:35;;;;;;;;;1.75;1.75;;;;;;;;4984329;28;10175;-87
2022/09/28 05:33:03;;;;;;;;;4.00;2.00;;;;;;;;4985014;28;10106;-82
2022/09/28 05:35:30;;;;;;;;;2.00;2.00;;;;;;;;4985399;28;9920;-87
2022/09/28 05:38:02;;;;;;;;;4.00;2.75;;;;;;;;4985150;28;9875;-83
2022/09/28 05:40:29;;;;;;;;;5.50;2.00;;;;;;;;4984330;28;9944;-84
2022/09/28 05:43:00;;;;;;;;;3.50;2.00;;;;;;;;4983505;28;9808;-83
2022/09/28 05:45:27;;;;;;;;;2.50;2.50;;;;;;;;4985303;28;9797;-85
2022/09/28 05:47:56;;;;;;;;;2.00;2.00;;;;;;;;4985858;28;9799;-82
2022/09/28 05:50:24;;;;;;;;;2.00;2.00;;;;;;;;4984536;28;9797;-83
2022/09/28 05:52:59;;;;;;;;;1.00;1.00;;;;;;;;4986840;28;10524;-82
2022/09/28 05:55:26;;;;;;;;;4.00;3.75;;;;;;;;4985850;28;9678;-86
2022/09/28 05:57:54;;;;;;;;;3.00;3.00;;;;;;;;4984692;28;9734;-80
2022/09/28 06:00:22;;;;;;;;;2.00;2.00;;;;;;;;4984394;28;9586;-82
2022/09/28 06:03:10;;;;;;;;;3.00;2.25;;;;;;;;4988357;28;9736;-77
2022/09/28 06:05:38;;;;;;;;;2.25;1.00;;;;;;;;4989134;28;9638;-79
2022/09/28 06:08:07;;;;;;;;;1.00;1.00;;;;;;;;4980300;28;9586;-81
2022/09/28 06:10:35;;;;;;;;;2.75;2.75;;;;;;;;4981270;28;9571;-80
2022/09/28 06:13:02;;;;;;;;;3.00;3.00;;;;;;;;4984220;28;9827;-81
2022/09/28 06:15:31;;;;;;;;;2.00;2.00;;;;;;;;4983532;28;9683;-80
2022/09/28 06:18:01;;;;;;;;;3.00;1.75;;;;;;;;4983752;28;9698;-81
2022/09/28 06:20:31;;;;;;;;;2.00;1.00;;;;;;;;4983782;28;9689;-83
2022/09/28 06:23:00;;;;;;;;;1.25;1.25;;;;;;;;4985987;28;9498;-79
2022/09/28 06:25:28;;;;;;;;;2.25;2.00;;;;;;;;4965129;28;9600;-79
2022/09/28 06:27:56;;;;;;;;;1.00;1.00;;;;;;;;4982246;28;9506;-84
2022/09/28 06:30:25;;;;;;;;;5.00;2.00;;;;;;;;4984112;28;10171;-81
2022/09/28 06:32:55;;;;;;;;;2.00;2.00;;;;;;;;4980179;28;9446;-81
2022/09/28 06:35:41;;;;;;;;;3.00;3.00;;;;;;;;4983757;28;9527;-81
2022/09/28 06:38:08;;;;;;;;;2.00;2.00;;;;;;;;4979636;28;9423;-80
2022/09/28 06:40:36;;;;;;;;;3.67;3.67;;;;;;;;4982144;28;9438;-82
2022/09/28 06:43:08;;;;;;;;;2.00;2.00;;;;;;;;4980698;28;9488;-82
2022/09/28 06:45:56;;;;;;;;;2.00;2.00;;;;;;;;4981807;28;9392;-91
2022/09/28 06:48:24;;;;;;;;;2.67;2.67;;;;;;;;4982205;28;9500;-84
2022/09/28 06:50:53;;;;;;;;;3.00;3.00;;;;;;;;4984404;28;9430;-80
2022/09/28 06:53:20;;;;;;;;;6.33;3.67;;;;;;;;4982900;28;10373;-85
2022/09/28 06:55:49;;;;;;;;;7.25;3.25;;;;;;;;4982113;28;9471;-86
2022/09/28 06:58:18;;;;;;;;;3.00;3.00;;;;;;;;4983142;28;9826;-84
2022/09/28 07:00:47;;;;;;;;;0.00;0.00;;;;;;;;4981988;28;9783;-83
2022/09/28 07:03:20;;;;;;;;;2.75;2.75;;;;;;;;4977492;28;10488;-81
2022/09/28 07:05:50;;;;;;;;;3.00;3.00;;;;;;;;4983692;28;10788;-81
2022/09/28 07:08:28;;;;;;;;;2.50;2.50;;;;;;;;4983130;28;9910;-86
2022/09/28 07:11:15;;;;;;;;;3.00;3.00;;;;;;;;4983355;28;10479;-86
2022/09/28 07:13:43;;;;;;;;;6.00;2.75;;;;;;;;4984178;28;9923;-85
2022/09/28 07:16:11;;;;;;;;;2.00;2.00;;;;;;;;4983391;28;9664;-85
2022/09/28 07:18:38;;;;;;;;;3.75;3.75;;;;;;;;4984303;28;9716;-87
2022/09/28 07:21:06;;;;;;;;;3.00;1.00;;;;;;;;4984576;28;9748;-87
2022/09/28 07:23:37;;;;;;;;;3.50;3.50;;;;;;;;4985572;28;9643;-88
2022/09/28 07:26:05;;;;;;;;;3.50;1.00;;;;;;;;4984295;28;9732;-87
2022/09/28 07:28:41;;;;;;;;;2.00;2.00;;;;;;;;4984030;28;10513;-86
2022/09/28 07:31:09;;;;;;;;;6.00;3.00;;;;;;;;4975623;28;9681;-86
2022/09/28 07:36:59;;;;;;;;;5.00;2.00;;;;;;;;4985727;28;9688;-87
2022/09/28 07:39:28;;;;;;;;;1.00;1.00;;;;;;;;4982800;28;10395;-86
2022/09/28 07:42:10;;;;;;;;;2.50;2.50;;;;;;;;4984297;28;9725;-87
2022/09/28 07:44:44;;;;;;;;;3.75;2.00;;;;;;;;4994327;28;9658;-88
2022/09/28 07:47:14;;;;;;;;;1.00;1.00;;;;;;;;4983249;28;9660;-87
2022/09/28 07:49:41;;;;;;;;;1.50;0.00;;;;;;;;4989141;28;9565;-88
2022/09/28 07:52:09;;;;;;;;;1.00;1.00;;;;;;;;4988463;28;9696;-79
2022/09/28 07:54:39;;;;;;;;;1.00;1.00;;;;;;;;4983148;28;10235;-79
2022/09/28 07:57:06;;;;;;;;;1.25;0.75;;;;;;;;4982033;28;9510;-80
2022/09/28 07:59:34;;;;;;;;;1.75;1.75;;;;;;;;4983747;28;9434;-79
2022/09/28 08:02:01;;;;;;;;;1.00;1.00;;;;;;;;4980859;28;9479;-81
2022/09/28 08:04:29;;;;;;;;;1.00;1.00;;;;;;;;4980342;28;9434;-79
2022/09/28 08:06:56;;;;;;;;;1.00;1.00;;;;;;;;4977748;28;9440;-80
2022/09/28 08:09:24;;;;;;;;;1.00;1.00;;;;;;;;4980672;28;9355;-81
2022/09/28 08:11:53;;;;;;;;;1.00;1.00;;;;;;;;4980499;28;9476;-78
2022/09/28 08:14:21;;;;;;;;;1.00;1.00;;;;;;;;4981007;28;9259;-88
2022/09/28 08:16:48;;;;;;;;;0.00;0.00;;;;;;;;4982520;28;9136;-84
2022/09/28 08:19:15;;;;;;;;;0.00;0.00;;;;;;;;4981389;28;9130;-85
2022/09/28 08:21:44;;;;;;;;;8.33;5.67;;;;;;;;4983364;28;9130;-81
2022/09/28 08:24:11;;;;;;;;;1.00;1.00;;;;;;;;4982261;28;9605;-85
2022/09/28 08:26:38;;;;;;;;;0.33;0.33;;;;;;;;4982263;28;9048;-86
2022/09/28 08:29:08;;;;;;;;;1.00;1.00;;;;;;;;4983773;28;8963;-81
2022/09/28 08:31:35;;;;;;;;;1.00;1.00;;;;;;;;4984422;28;8854;-83
2022/09/28 08:34:03;;;;;;;;;0.00;0.00;;;;;;;;4987161;28;8907;-78
2022/09/28 08:36:31;;;;;;;;;1.00;1.00;;;;;;;;4983793;28;8867;-81
2022/09/28 08:38:58;;;;;;;;;2.50;0.25;;;;;;;;4984044;28;8890;-83
2022/09/28 08:41:35;;;;;;;;;0.75;0.75;;;;;;;;4985874;28;8899;-80
2022/09/28 08:44:25;;;;;;;;;0.25;0.25;;;;;;;;4984618;28;8874;-81
2022/09/28 08:46:55;;;;;;;;;1.25;1.25;;;;;;;;4987000;28;8928;-80
2022/09/28 08:49:28;;;;;;;;;2.00;2.00;;;;;;;;4984407;28;8895;-81
2022/09/28 08:51:59;;;;;;;;;1.00;1.00;;;;;;;;4986275;28;8979;-81
2022/09/28 08:54:35;;;;;;;;;3.00;1.00;;;;;;;;4967023;28;9033;-77
2022/09/28 08:57:05;;;;;;;;;3.75;1.50;;;;;;;;4979459;28;8889;-79
2022/09/28 08:59:43;;;;;;;;;2.00;2.00;;;;;;;;4983983;28;8896;-78
2022/09/28 09:02:18;;;;;;;;;3.25;1.00;;;;;;;;4992278;28;8989;-79
2022/09/28 09:04:45;;;;;;;;;1.00;1.00;;;;;;;;4980346;28;8913;-79
2022/09/28 09:07:27;;;;;;;;;0.50;0.50;;;;;;;;4982324;28;8879;-82
2022/09/28 09:10:04;;;;;;;;;0.00;0.00;;;;;;;;4984105;28;8871;-79
2022/09/28 09:12:38;;;;;;;;;1.25;0.25;;;;;;;;4984727;28;8889;-79
2022/09/28 09:15:19;;;;;;;;;0.00;0.00;;;;;;;;4985310;28;8886;-79
2022/09/28 09:17:54;;;;;;;;;1.00;1.00;;;;;;;;4982946;28;9030;-78
2022/09/28 09:20:30;;;;;;;;;1.00;1.00;;;;;;;;4984714;28;8993;-81
2022/09/28 09:22:59;;;;;;;;;4.25;3.00;;;;;;;;4986158;28;8883;-80
2022/09/28 09:25:29;;;;;;;;;1.50;1.00;;;;;;;;4985352;28;8877;-81
2022/09/28 09:28:30;;;;;;;;;0.00;0.00;;;;;;;;4985906;28;8894;-81
2022/09/28 09:31:08;;;;;;;;;1.00;1.00;;;;;;;;4968144;28;10109;-82
2022/09/28 09:33:54;;;;;;;;;1.50;1.25;;;;;;;;4983554;28;8894;-81
2022/09/28 09:36:34;;;;;;;;;5.25;5.25;;;;;;;;4982978;28;9649;-81
2022/09/28 09:39:19;;;;;;;;;0.75;0.75;;;;;;;;4986258;28;8894;-82
2022/09/28 09:41:57;;;;;;;;;2.75;2.75;;;;;;;;4982282;28;8890;-81
2022/09/28 09:45:08;;;;;;;;;0.25;0.25;;;;;;;;4986687;28;8965;-81
2022/09/28 09:47:41;;;;;;;;;0.00;0.00;;;;;;;;4975408;28;8871;-80
2022/09/28 09:50:13;;;;;;;;;0.75;0.00;;;;;;;;4977279;28;9005;-82
2022/09/28 09:52:47;;;;;;;;;0.25;0.25;;;;;;;;4982197;28;8877;-82
2022/09/28 09:55:17;;;;;;;;;0.00;0.00;;;;;;;;4982150;28;8929;-76
2022/09/28 09:57:49;;;;;;;;;1.00;1.00;;;;;;;;4980356;28;8879;-78
2022/09/28 10:00:18;;;;;;;;;0.00;0.00;;;;;;;;4984549;28;8952;-78
2022/09/28 10:02:53;;;;;;;;;0.75;0.00;;;;;;;;4983481;28;8887;-78
2022/09/28 10:05:22;;;;;;;;;0.25;0.25;;;;;;;;4977144;28;8870;-78
2022/09/28 10:07:54;;;;;;;;;0.00;0.00;;;;;;;;4982844;28;8887;-77
2022/09/28 10:10:24;;;;;;;;;1.00;0.00;;;;;;;;4983686;28;8894;-77
2022/09/28 10:12:52;;;;;;;;;0.25;0.25;;;;;;;;4983391;28;8883;-77
2022/09/28 10:15:23;;;;;;;;;4.00;1.00;;;;;;;;4984638;28;8883;-77
2022/09/28 10:17:52;;;;;;;;;2.50;0.00;;;;;;;;4982724;28;8908;-77
2022/09/28 10:20:21;;;;;;;;;2.00;1.00;;;;;;;;4983772;28;9030;-77
2022/09/28 10:22:51;;;;;;;;;0.00;0.00;;;;;;;;4983231;28;8874;-77
2022/09/28 10:25:19;;;;;;;;;0.00;0.00;;;;;;;;4982973;28;8886;-77
2022/09/28 10:27:51;;;;;;;;;0.00;0.00;;;;;;;;4985593;28;8878;-77
2022/09/28 10:30:21;;;;;;;;;0.00;0.00;;;;;;;;4983879;28;8883;-77
2022/09/28 10:32:50;;;;;;;;;0.75;0.00;;;;;;;;4977942;28;8921;-77
2022/09/28 10:35:26;;;;;;;;;0.00;0.00;;;;;;;;4983953;28;8985;-76
2022/09/28 10:37:56;;;;;;;;;0.00;0.00;;;;;;;;4984514;28;8882;-77
2022/09/28 10:40:34;;;;;;;;;0.75;0.75;;;;;;;;4981761;28;8929;-77
2022/09/28 10:43:03;;;;;;;;;0.00;0.00;;;;;;;;4983831;28;8886;-78
2022/09/28 10:45:34;;;;;;;;;0.00;0.00;;;;;;;;4984941;28;8946;-77
2022/09/28 10:48:03;;;;;;;;;0.00;0.00;;;;;;;;4983654;28;9621;-77
2022/09/28 10:50:33;;;;;;;;;0.00;0.00;;;;;;;;4983295;28;8867;-77
2022/09/28 10:53:15;;;;;;;;;0.00;0.00;;;;;;;;4983998;28;8855;-78
2022/09/28 10:55:42;;;;;;;;;0.00;0.00;;;;;;;;4979147;28;8905;-84
2022/09/28 10:58:25;;;;;;;;;0.00;0.00;;;;;;;;4983010;28;8937;-81
2022/09/28 11:00:52;;;;;;;;;0.00;0.00;;;;;;;;4980223;28;8837;-83
2022/09/28 11:03:23;;;;;;;;;0.25;0.25;;;;;;;;4977647;28;8871;-81
2022/09/28 11:06:00;;;;;;;;;0.00;0.00;;;;;;;;4983949;28;8847;-81
2022/09/28 11:08:31;;;;;;;;;0.00;0.00;;;;;;;;4986370;28;8901;-80
2022/09/28 11:11:04;;;;;;;;;0.00;0.00;;;;;;;;4984547;28;8993;-79
2022/09/28 11:13:32;;;;;;;;;0.00;0.00;;;;;;;;4983664;28;8867;-80
2022/09/28 11:15:59;;;;;;;;;0.00;0.00;;;;;;;;4985141;28;8924;-79
2022/09/28 11:18:31;;;;;;;;;0.00;0.00;;;;;;;;4982702;28;9696;-80
2022/09/28 11:21:15;;;;;;;;;0.00;0.00;;;;;;;;4983244;28;8883;-81
2022/09/28 11:23:56;;;;;;;;;0.75;0.75;;;;;;;;4984674;28;8867;-80
2022/09/28 11:26:24;;;;;;;;;0.40;0.40;;;;;;;;4982683;28;8986;-80
2022/09/28 11:28:52;;;;;;;;;2.00;0.75;;;;;;;;4984685;28;8880;-80
2022/09/28 11:31:26;;;;;;;;;0.00;0.00;;;;;;;;4979600;28;8819;-81
2022/09/28 11:34:04;;;;;;;;;1.00;1.00;;;;;;;;4984180;28;8862;-83
2022/09/28 11:36:46;;;;;;;;;0.00;0.00;;;;;;;;4983491;28;8887;-81
2022/09/28 11:39:18;;;;;;;;;2.00;0.00;;;;;;;;4978683;28;8866;-78
2022/09/28 11:41:56;;;;;;;;;1.50;0.00;;;;;;;;4982130;28;8874;-80
2022/09/28 11:44:38;;;;;;;;;0.00;0.00;;;;;;;;4982165;28;8964;-78
2022/09/28 11:47:33;;;;;;;;;0.00;0.00;;;;;;;;4982338;28;8901;-77
2022/09/28 11:50:06;;;;;;;;;0.00;0.00;;;;;;;;4978458;28;8950;-77
2022/09/28 11:52:40;;;;;;;;;0.00;0.00;;;;;;;;4981674;28;8886;-76
2022/09/28 11:55:14;;;;;;;;;0.00;0.00;;;;;;;;4980907;28;8862;-78
2022/09/28 11:57:46;;;;;;;;;0.00;0.00;;;;;;;;4982357;28;8968;-81
2022/09/28 12:00:15;;;;;;;;;0.00;0.00;;;;;;;;4980307;28;8941;-81
2022/09/28 12:02:46;;;;;;;;;1.00;0.00;;;;;;;;4980657;28;8875;-78
2022/09/28 12:05:17;;;;;;;;;0.00;0.00;;;;;;;;4983221;28;9645;-78
2022/09/28 12:07:48;;;;;;;;;0.00;0.00;;;;;;;;4985812;28;8917;-82
2022/09/28 12:10:20;;;;;;;;;0.00;0.00;;;;;;;;4983514;28;9072;-80
2022/09/28 12:12:50;;;;;;;;;0.00;0.00;;;;;;;;4987380;28;9171;-79
2022/09/28 12:15:21;;;;;;;;;0.00;0.00;;;;;;;;4985354;28;8854;-79
2022/09/28 12:17:53;;;;;;;;;0.00;0.00;;;;;;;;4988014;28;9700;-81
2022/09/28 12:20:24;;;;;;;;;1.00;1.00;;;;;;;;4989494;28;8890;-82
2022/09/28 12:23:03;;;;;;;;;2.00;0.00;;;;;;;;4979822;28;8973;-78
2022/09/28 12:25:35;;;;;;;;;0.00;0.00;;;;;;;;4989569;28;9743;-80
2022/09/28 12:28:06;;;;;;;;;0.00;0.00;;;;;;;;4985590;28;8867;-82
2022/09/28 12:30:39;;;;;;;;;0.00;0.00;;;;;;;;4987805;28;8822;-81
2022/09/28 12:33:10;;;;;;;;;1.00;1.00;;;;;;;;4987357;28;9620;-80
2022/09/28 12:35:51;;;;;;;;;0.00;0.00;;;;;;;;4986745;28;8910;-82
2022/09/28 12:38:41;;;;;;;;;0.00;0.00;;;;;;;;4986965;28;8902;-84
2022/09/28 12:41:22;;;;;;;;;0.00;0.00;;;;;;;;4977027;28;8961;-83
2022/09/28 12:44:22;;;;;;;;;1.00;1.00;;;;;;;;4976155;28;9081;-79
2022/09/28 12:47:04;;;;;;;;;0.00;0.00;;;;;;;;4985864;28;9021;-81
2022/09/28 12:49:43;;;;;;;;;0.80;0.80;;;;;;;;4985855;28;9773;-83
2022/09/28 12:52:24;;;;;;;;;0.00;0.00;;;;;;;;4986312;28;8875;-79
2022/09/28 12:55:23;;;;;;;;;0.00;0.00;;;;;;;;4985243;28;8885;-82
2022/09/28 12:58:15;;;;;;;;;2.80;0.00;;;;;;;;4943962;28;8890;-84
2022/09/28 13:00:50;;;;;;;;;0.00;0.00;;;;;;;;4985911;28;8822;-80
2022/09/28 13:03:35;;;;;;;;;0.00;0.00;;;;;;;;4986408;28;8851;-79
2022/09/28 13:06:23;;;;;;;;;0.00;0.00;;;;;;;;4983670;28;8863;-80
2022/09/28 13:09:14;;;;;;;;;0.00;0.00;;;;;;;;4986360;28;8875;-81
2022/09/28 13:11:48;;;;;;;;;0.40;0.00;;;;;;;;4986004;28;9056;-77
2022/09/28 13:14:37;;;;;;;;;2.40;1.00;;;;;;;;4985725;28;8871;-78
2022/09/28 13:17:14;;;;;;;;;1.20;0.00;;;;;;;;4983954;28;8984;-79
2022/09/28 13:19:48;;;;;;;;;0.00;0.00;;;;;;;;4985244;28;8886;-77
2022/09/28 13:22:26;;;;;;;;;0.00;0.00;;;;;;;;4984135;28;8851;-78
2022/09/28 13:24:59;;;;;;;;;0.00;0.00;;;;;;;;4984307;28;9029;-78
2022/09/28 13:27:31;;;;;;;;;1.60;0.00;;;;;;;;4983850;28;8897;-79
2022/09/28 13:30:05;;;;;;;;;0.00;0.00;;;;;;;;4985665;28;8887;-78
2022/09/28 13:32:34;;;;;;;;;0.00;0.00;;;;;;;;4985749;28;8819;-78
2022/09/28 13:35:02;;;;;;;;;0.00;0.00;;;;;;;;4988191;28;9641;-79
2022/09/28 13:37:30;;;;;;;;;0.00;0.00;;;;;;;;4982084;28;9005;-77
2022/09/28 13:39:57;;;;;;;;;0.00;0.00;;;;;;;;4985259;28;8883;-76
2022/09/28 13:42:54;;;;;;;;;2.00;1.20;;;;;;;;4983488;28;9576;-78
2022/09/28 13:45:43;;;;;;;;;1.00;1.00;;;;;;;;4976078;28;10283;-77
2022/09/28 13:48:16;;;;;;;;;7.00;7.00;;;;;;;;4978584;28;8997;-77
2022/09/28 13:51:05;;;;;;;;;2.00;2.00;;;;;;;;4981514;28;8866;-78
2022/09/28 13:53:55;;;;;;;;;0.00;0.00;;;;;;;;4962748;28;8881;-77
2022/09/28 13:56:35;;;;;;;;;1.00;0.00;;;;;;;;4981182;28;8951;-77
2022/09/28 13:59:10;;;;;;;;;0.80;0.00;;;;;;;;4980796;28;8906;-77
2022/09/28 14:01:42;;;;;;;;;0.00;0.00;;;;;;;;4975534;28;8835;-77
2022/09/28 14:04:17;;;;;;;;;0.00;0.00;;;;;;;;4979366;28;8893;-77
2022/09/28 14:06:49;;;;;;;;;0.00;0.00;;;;;;;;4981745;28;8879;-77
2022/09/28 14:09:42;;;;;;;;;0.75;0.00;;;;;;;;4978447;28;9012;-76
2022/09/28 14:12:30;;;;;;;;;0.00;0.00;;;;;;;;4960238;28;8886;-77
2022/09/28 14:14:58;;;;;;;;;1.00;0.00;;;;;;;;4981703;28;8961;-77
2022/09/28 14:17:53;;;;;;;;;0.00;0.00;;;;;;;;4980421;28;8871;-77
2022/09/28 14:20:23;;;;;;;;;0.00;0.00;;;;;;;;4957624;28;8887;-77
2022/09/28 14:23:02;;;;;;;;;0.00;0.00;;;;;;;;4982400;28;9546;-78
2022/09/28 14:25:32;;;;;;;;;0.00;0.00;;;;;;;;4981885;28;8910;-77
2022/09/28 14:28:26;;;;;;;;;1.50;0.00;;;;;;;;4980913;28;8948;-77
2022/09/28 14:30:57;;;;;;;;;0.00;0.00;;;;;;;;4981555;28;8829;-77
2022/09/28 14:33:28;;;;;;;;;0.00;0.00;;;;;;;;4980687;28;8871;-77
2022/09/28 14:35:58;;;;;;;;;0.00;0.00;;;;;;;;4982522;28;8902;-76
2022/09/28 14:41:28;;;;;;;;;0.00;0.00;;;;;;;;4974895;28;8875;-77
2022/09/28 14:44:02;;;;;;;;;0.75;0.75;;;;;;;;4982009;28;8902;-77
2022/09/28 14:46:44;;;;;;;;;0.00;0.00;;;;;;;;4979861;28;8883;-78
2022/09/28 14:49:46;;;;;;;;;0.00;0.00;;;;;;;;4975127;28;8898;-76
2022/09/28 14:52:20;;;;;;;;;0.00;0.00;;;;;;;;4980503;28;8862;-76
2022/09/28 14:54:53;;;;;;;;;0.00;0.00;;;;;;;;4981292;28;8899;-76
2022/09/28 14:57:23;;;;;;;;;1.00;1.00;;;;;;;;4975388;28;8877;-76
2022/09/28 14:59:50;;;;;;;;;2.00;1.25;;;;;;;;4975054;28;8910;-77
2022/09/28 15:02:24;;;;;;;;;3.50;2.00;;;;;;;;4981027;28;8870;-77
2022/09/28 15:04:58;;;;;;;;;1.75;1.00;;;;;;;;4982021;28;8879;-79
2022/09/28 15:07:28;;;;;;;;;0.00;0.00;;;;;;;;4983929;28;8886;-76
2022/09/28 15:09:56;;;;;;;;;0.25;0.25;;;;;;;;4980452;28;8905;-77
2022/09/28 15:12:27;;;;;;;;;0.00;0.00;;;;;;;;4980698;28;8882;-78
2022/09/28 15:14:57;;;;;;;;;0.00;0.00;;;;;;;;4982799;28;8871;-79
2022/09/28 15:17:27;;;;;;;;;0.75;0.00;;;;;;;;4982086;28;8863;-76
2022/09/28 15:20:23;;;;;;;;;0.00;0.00;;;;;;;;4983140;28;8897;-79
2022/09/28 15:22:53;;;;;;;;;0.00;0.00;;;;;;;;4983425;28;8970;-76
2022/09/28 15:25:23;;;;;;;;;0.00;0.00;;;;;;;;4981552;28;8875;-75
2022/09/28 15:27:53;;;;;;;;;0.00;0.00;;;;;;;;4983904;28;8867;-76
2022/09/28 15:30:24;;;;;;;;;1.00;1.00;;;;;;;;4982225;28;8887;-76
2022/09/28 15:32:53;;;;;;;;;1.00;1.00;;;;;;;;4983954;28;8909;-77
2022/09/28 15:35:24;;;;;;;;;0.25;0.25;;;;;;;;4982532;28;8851;-76
2022/09/28 15:37:51;;;;;;;;;0.00;0.00;;;;;;;;4983070;28;9034;-78
2022/09/28 15:40:24;;;;;;;;;0.00;0.00;;;;;;;;4987453;28;8867;-80